createdAt,value
2024-01-31T06:18:42.010Z,69.14
2024-01-31T06:20:45.692Z,68.82
2024-01-31T06:22:48.735Z,68.54
2024-01-31T06:24:51.581Z,67.79
2024-01-31T06:26:54.543Z,67.65
2024-01-31T06:28:57.582Z,67.41
2024-01-31T06:31:04.471Z,67.24
2024-01-31T06:33:07.514Z,66.90
2024-01-31T06:35:12.154Z,66.72
2024-01-31T06:37:15.251Z,66.69
2024-01-31T06:39:18.188Z,66.59
2024-01-31T06:41:21.356Z,66.16
2024-01-31T06:43:24.015Z,66.24
2024-01-31T06:45:27.133Z,66.13
2024-01-31T06:47:29.961Z,65.92
2024-01-31T06:49:32.029Z,65.76
2024-01-31T06:51:36.368Z,65.50
2024-01-31T06:53:39.573Z,65.55
2024-01-31T06:55:42.554Z,65.63
2024-01-31T06:57:45.522Z,65.16
2024-01-31T06:59:48.408Z,64.96
2024-01-31T07:01:51.418Z,65.06
2024-01-31T07:03:54.385Z,65.01
2024-01-31T07:05:57.772Z,64.81
2024-01-31T07:08:02.158Z,64.77
2024-01-31T07:10:05.622Z,64.90
2024-01-31T07:12:08.866Z,64.83
2024-01-31T07:14:11.674Z,64.37
2024-01-31T07:16:15.162Z,64.27
2024-01-31T07:18:18.522Z,64.51
2024-01-31T07:20:21.414Z,64.20
2024-01-31T07:22:24.288Z,64.30
2024-01-31T07:24:30.467Z,64.12
2024-01-31T07:26:33.559Z,64.30
2024-01-31T07:28:38.069Z,63.99
2024-01-31T07:30:41.450Z,64.06
2024-01-31T07:32:44.264Z,63.88
2024-01-31T07:34:46.338Z,63.66
2024-01-31T07:36:49.373Z,63.64
2024-01-31T07:38:52.355Z,63.46
2024-01-31T07:40:56.715Z,63.82
2024-01-31T07:43:00.299Z,63.60
2024-01-31T07:45:02.162Z,63.66
2024-01-31T07:47:05.497Z,63.83
2024-01-31T07:49:10.102Z,63.56
2024-01-31T07:51:13.013Z,63.68
2024-01-31T07:53:15.999Z,63.35
2024-01-31T07:55:19.296Z,63.34
2024-01-31T07:57:24.067Z,63.45
2024-01-31T07:59:26.908Z,63.32
2024-01-31T08:01:29.913Z,63.22
2024-01-31T08:03:36.207Z,63.49
2024-01-31T08:05:39.604Z,63.08
2024-01-31T08:07:44.921Z,63.40
2024-01-31T08:09:46.945Z,63.27
2024-01-31T08:11:50.320Z,63.00
2024-01-31T08:13:54.662Z,63.01
2024-01-31T08:15:57.482Z,62.98
2024-01-31T08:18:00.468Z,62.98
2024-01-31T08:20:05.062Z,62.86
2024-01-31T08:22:08.097Z,62.96
2024-01-31T08:24:11.030Z,63.13
2024-01-31T08:26:18.286Z,62.78
2024-01-31T08:28:21.151Z,62.69
2024-01-31T08:30:25.659Z,62.73
2024-01-31T08:32:29.821Z,62.64
2024-01-31T08:34:33.637Z,62.64
2024-01-31T08:36:37.687Z,62.59
2024-01-31T08:38:44.467Z,62.76
2024-01-31T08:40:46.434Z,62.57
2024-01-31T08:42:50.001Z,62.87
2024-01-31T08:44:53.513Z,62.86
2024-01-31T08:47:10.139Z,62.83
2024-01-31T08:49:22.145Z,62.39
2024-01-31T08:51:25.443Z,62.37
2024-01-31T08:53:27.351Z,62.32
2024-01-31T08:55:31.442Z,62.36
2024-01-31T08:57:34.702Z,62.49
2024-01-31T08:59:37.788Z,62.22
2024-01-31T09:01:45.070Z,62.21
2024-01-31T09:03:49.914Z,62.63
2024-01-31T09:05:58.821Z,62.39
2024-01-31T09:08:02.088Z,62.36
2024-01-31T09:10:05.816Z,62.52
2024-01-31T09:12:09.955Z,62.47
2024-01-31T09:14:12.920Z,62.05
2024-01-31T09:16:16.063Z,62.34
2024-01-31T09:18:18.200Z,62.18
2024-01-31T09:20:22.593Z,62.08
2024-01-31T09:22:26.215Z,61.94
2024-01-31T09:24:29.427Z,62.08
2024-01-31T09:26:33.098Z,61.93
2024-01-31T09:28:36.045Z,62.13
2024-01-31T09:30:40.090Z,62.07
2024-01-31T09:32:42.000Z,62.00
2024-01-31T09:34:46.081Z,61.78
2024-01-31T09:36:50.717Z,61.71
2024-01-31T09:38:54.201Z,61.75
2024-01-31T09:40:58.453Z,61.71
2024-01-31T09:43:00.888Z,61.81
2024-01-31T09:45:04.962Z,61.83
2024-01-31T09:47:11.093Z,61.74
2024-01-31T09:49:14.205Z,61.80
2024-01-31T09:51:22.026Z,61.37
2024-01-31T09:53:26.276Z,61.65
2024-01-31T09:55:31.045Z,61.29
2024-01-31T09:57:33.028Z,61.29
2024-01-31T09:59:36.462Z,61.26
2024-01-31T10:01:41.755Z,61.41
2024-01-31T10:03:45.121Z,61.26
2024-01-31T10:05:48.476Z,61.47
2024-01-31T10:07:52.160Z,61.12
2024-01-31T10:09:57.451Z,60.78
2024-01-31T10:12:01.411Z,60.92
2024-01-31T10:14:04.811Z,61.39
2024-01-31T10:16:07.886Z,60.85
2024-01-31T10:18:12.390Z,60.80
2024-01-31T10:20:15.964Z,61.19
2024-01-31T10:22:19.231Z,60.84
2024-01-31T10:24:22.186Z,60.75
2024-01-31T10:26:29.279Z,61.20
2024-01-31T10:28:33.375Z,60.81
2024-01-31T10:30:41.850Z,60.62
2024-01-31T10:32:47.916Z,60.75
2024-01-31T10:35:11.070Z,60.85
2024-01-31T10:37:49.354Z,60.99
2024-01-31T10:39:41.387Z,60.86
2024-01-31T10:41:46.223Z,60.96
2024-01-31T10:43:50.934Z,60.89
2024-01-31T10:45:54.558Z,60.83
2024-01-31T10:47:57.696Z,60.75
2024-01-31T10:50:00.785Z,60.31
2024-01-31T10:52:08.854Z,60.74
2024-01-31T10:54:13.782Z,60.48
2024-01-31T10:56:19.795Z,60.69
2024-01-31T10:58:25.688Z,60.57
2024-01-31T11:00:30.325Z,60.53
2024-01-31T11:02:35.934Z,60.65
2024-01-31T11:04:40.950Z,60.71
2024-01-31T11:06:44.474Z,60.33
2024-01-31T11:08:49.780Z,60.52
2024-01-31T11:10:52.907Z,60.45
2024-01-31T11:13:00.356Z,60.44
2024-01-31T11:15:07.579Z,60.26
2024-01-31T11:17:12.670Z,60.09
2024-01-31T11:19:21.668Z,60.20
2024-01-31T11:21:25.767Z,60.33
2024-01-31T11:23:28.791Z,60.33
2024-01-31T11:25:35.005Z,60.35
2024-01-31T11:27:38.829Z,60.17
2024-01-31T11:29:42.018Z,60.35
2024-01-31T11:31:46.549Z,60.22
2024-01-31T11:33:50.610Z,59.96
2024-01-31T11:35:53.727Z,60.25
2024-01-31T11:37:58.148Z,60.13
2024-01-31T11:40:01.699Z,60.23
2024-01-31T11:42:05.723Z,60.15
2024-01-31T11:44:09.146Z,60.10
2024-01-31T11:46:12.721Z,60.05
2024-01-31T11:48:17.204Z,59.88
2024-01-31T11:50:20.511Z,59.39
2024-01-31T11:52:23.351Z,59.87
2024-01-31T11:54:25.198Z,59.81
2024-01-31T11:56:28.487Z,59.88
2024-01-31T11:58:32.565Z,59.88
2024-01-31T12:00:35.766Z,59.59
2024-01-31T12:02:39.455Z,59.61
2024-01-31T12:04:52.670Z,59.64
2024-01-31T12:07:04.614Z,59.64
2024-01-31T12:09:07.715Z,59.55
2024-01-31T12:11:12.036Z,59.52
2024-01-31T12:13:14.891Z,59.48
2024-01-31T12:15:17.250Z,59.49
2024-01-31T12:17:22.489Z,59.78
2024-01-31T12:19:28.892Z,59.76
2024-01-31T12:21:40.845Z,59.59
2024-01-31T12:23:43.645Z,59.62
2024-01-31T12:25:46.675Z,59.37
2024-01-31T12:27:49.826Z,59.20
2024-01-31T12:29:52.922Z,59.07
2024-01-31T12:31:55.760Z,59.56
2024-01-31T12:33:58.717Z,59.40
2024-01-31T12:36:01.837Z,59.21
2024-01-31T12:38:06.547Z,59.02
2024-01-31T12:40:10.353Z,59.13
2024-01-31T12:42:13.733Z,59.17
2024-01-31T12:44:17.695Z,59.00
2024-01-31T12:46:21.364Z,58.85
2024-01-31T12:48:24.872Z,58.65
2024-01-31T12:50:28.464Z,59.04
2024-01-31T12:52:32.062Z,58.79
2024-01-31T12:54:36.716Z,58.81
2024-01-31T12:56:40.554Z,58.43
2024-01-31T12:58:44.463Z,58.53
2024-01-31T13:00:46.446Z,58.59
2024-01-31T13:02:49.491Z,58.34
2024-01-31T13:04:53.472Z,58.45
2024-01-31T13:06:56.601Z,58.51
2024-01-31T13:09:00.071Z,58.69
2024-01-31T13:11:05.362Z,58.64
2024-01-31T13:13:08.325Z,58.63
2024-01-31T13:15:12.284Z,58.64
2024-01-31T13:17:15.504Z,58.55
2024-01-31T13:19:21.655Z,58.31
2024-01-31T13:21:25.607Z,58.46
2024-01-31T13:23:27.521Z,58.48
2024-01-31T13:25:30.959Z,58.28
2024-01-31T13:27:35.406Z,58.50
2024-01-31T13:29:38.872Z,58.21
2024-01-31T13:31:42.962Z,58.41
2024-01-31T13:33:45.966Z,58.37
2024-01-31T13:35:49.249Z,58.36
2024-01-31T13:37:52.781Z,58.40
2024-01-31T13:39:55.630Z,58.14
2024-01-31T13:42:07.025Z,58.16
2024-01-31T13:46:38.410Z,58.01
2024-01-31T13:51:16.705Z,58.00
2024-01-31T13:53:27.151Z,58.06
2024-01-31T13:55:42.269Z,58.01
2024-01-31T13:57:47.924Z,57.89
2024-01-31T14:00:03.591Z,58.20
2024-01-31T14:04:33.482Z,58.00
2024-01-31T14:06:36.858Z,57.88
2024-01-31T14:08:39.785Z,57.85
2024-01-31T14:10:43.348Z,57.83
2024-01-31T14:12:46.227Z,58.08
2024-01-31T14:14:50.220Z,57.94
2024-01-31T14:16:55.154Z,58.01
2024-01-31T14:18:58.101Z,58.10
2024-01-31T14:21:01.495Z,57.93
2024-01-31T14:25:16.208Z,57.80
2024-01-31T14:27:19.269Z,57.85
2024-01-31T14:29:22.734Z,57.56
2024-01-31T14:31:24.722Z,57.56
2024-01-31T14:33:29.818Z,57.79
2024-01-31T14:35:32.994Z,57.74
2024-01-31T14:37:36.191Z,57.67
2024-01-31T14:39:39.127Z,57.61
2024-01-31T14:41:43.264Z,57.51
2024-01-31T14:43:47.044Z,57.56
2024-01-31T14:45:48.872Z,57.54
2024-01-31T14:47:51.796Z,57.59
2024-01-31T14:49:56.140Z,57.22
2024-01-31T14:51:59.163Z,57.25
2024-01-31T14:54:02.200Z,57.09
2024-01-31T14:56:06.335Z,56.63
2024-01-31T14:58:09.521Z,56.41
2024-01-31T15:00:13.858Z,56.62
2024-01-31T15:02:16.924Z,56.85
2024-01-31T15:04:19.913Z,56.87
2024-01-31T15:06:25.038Z,56.80
2024-01-31T15:08:28.222Z,56.72
2024-01-31T15:10:54.220Z,56.61
2024-01-31T15:12:57.139Z,56.47
2024-01-31T15:15:00.378Z,56.90
2024-01-31T15:17:03.991Z,56.67
2024-01-31T20:33:50.526Z,56.73
2024-01-31T20:40:05.548Z,56.95
2024-01-31T20:42:08.741Z,56.93
2024-01-31T20:44:11.684Z,56.66
2024-01-31T20:46:18.111Z,56.75
2024-01-31T20:48:29.646Z,57.04
2024-01-31T20:50:37.875Z,56.80
2024-01-31T20:52:41.655Z,56.81
2024-01-31T20:54:44.829Z,56.73
2024-01-31T20:56:47.956Z,56.64
2024-01-31T20:58:50.306Z,56.89
2024-01-31T21:00:53.521Z,56.75
2024-01-31T21:02:56.601Z,56.94
2024-01-31T21:04:59.956Z,56.70
2024-01-31T21:07:04.630Z,56.73
2024-01-31T21:09:07.926Z,56.70
2024-01-31T21:11:10.905Z,56.65
2024-01-31T21:13:16.891Z,56.82
2024-01-31T21:15:20.125Z,57.02
2024-01-31T21:17:22.249Z,57.07
2024-01-31T21:19:25.553Z,56.64
2024-01-31T21:21:28.725Z,56.80
2024-01-31T21:23:33.400Z,56.99
2024-01-31T21:25:36.455Z,56.91
2024-01-31T21:27:39.645Z,57.13
2024-01-31T21:29:43.218Z,57.00
2024-01-31T21:31:46.258Z,56.72
2024-01-31T21:33:49.577Z,56.63
2024-01-31T21:35:52.233Z,57.15
2024-01-31T21:37:55.363Z,57.19
2024-01-31T21:40:00.235Z,56.71
2024-01-31T21:42:03.369Z,56.88
2024-01-31T21:44:06.885Z,56.96
2024-01-31T21:46:09.809Z,57.07
2024-01-31T21:48:12.867Z,56.84
2024-01-31T21:50:16.166Z,56.86
2024-01-31T21:52:20.651Z,57.16
2024-01-31T21:54:23.587Z,57.02
2024-01-31T21:56:27.000Z,56.76
2024-01-31T21:58:30.023Z,56.79
2024-01-31T22:00:32.112Z,56.86
2024-01-31T22:02:35.174Z,56.77
2024-01-31T22:04:40.898Z,56.77
2024-01-31T22:06:44.022Z,57.10
2024-01-31T22:08:47.609Z,56.77
2024-01-31T22:10:50.668Z,56.97
2024-01-31T22:12:55.455Z,56.80
2024-01-31T22:14:58.692Z,57.06
2024-01-31T22:17:01.722Z,56.78
2024-01-31T22:19:05.075Z,56.70
2024-01-31T22:21:08.140Z,56.72
